Aérodrome :
LOGIN :

S'inscrire | Disclaimer

   EN    FR    IT 

 










Légende :    VFR   VFR Marginal   IFR   IFR Intensif   IFR Très Intensif
Visi : 
Plafond : 
>= 8 km
>= 3000ft
5 à 8 km
1000 à 3000 ft
1500m à 5 km
500 à 1000 ft
800 à 1500m
200 à 500 ft
< 800m
< 200 ft
Symboles :   Orages  Brouillard  Fortes neiges  Fortes précipitations  Vent > 20 kt
SIGMETs :   Divers  Orages  Givrage  Turbulence  Onde Orograph.  Cendres Volcan.







- Altitude de l'aérodrome : 681 ft
- Code IATA : LBA
- Voir les cartes d'approche


EGNM - Leeds Bradford

DERNIER METAR :
  • 211250Z 21012KT 9999 FEW027 SCT032 19/12 Q1023

METARs EXPIRÉS :
  • 211220Z 23010KT 200V270 9999 FEW027 SCT032 18/11 Q1023
  • 211150Z 22011KT 180V260 9999 SCT028 18/11 Q1024
  • 211120Z 24011KT 200V280 9999 FEW013 SCT020 18/11 Q1024
  • 211050Z 23010KT 200V270 9999 FEW013 18/12 Q1024
  • 211020Z 23012KT 200V260 9999 FEW012 17/11 Q1024

TAF TAF EGNM
Valide du 21 à 12h jusqu'au 22 à 12h UTC


211057Z 2112/2212 22012KT 9999 SCT025
PROB30
TEMPO 2112/2121 6000 SHRA
TEMPO 2121/2206 23017G27KT 6000 RA BKN012
PROB30
TEMPO 2203/2210 BKN008
TEMPO 2206/2212 6000 RA BKN012
ATIS : +44 113 250 9696 (x2489)
Pas de NOTAMs connus pour ce terrain.



MET'MAP, la Météo Aéronautique d'un coup d'oeil ! - Copyright ORBIFLY Décembre 2007 - Disclaimer

ORBIFLY MET'MAP TEAM :

Programmation & Développement : Alexandra Zaïnal
Conception & Développement : Baudouin d'Aumeries
Co-Programmation & Développement : Marc-Olivier Méhu
Soutien technique & logistique : Manuel Goepfert

Contact : metmap@orbifly.com




SOURCES & CREDITS :

   NOAA